createdAt,value
2023-06-22T00:14:25.608Z,14.50
2023-06-22T00:29:26.058Z,16.00
2023-06-22T00:44:25.293Z,14.20
2023-06-22T00:59:25.097Z,16.70
2023-06-22T01:14:24.935Z,15.90
2023-06-22T01:29:24.785Z,12.90
2023-06-22T01:44:24.617Z,12.70
2023-06-22T01:59:24.458Z,15.70
2023-06-22T02:14:24.300Z,14.50
2023-06-22T02:29:24.132Z,15.90
2023-06-22T02:44:23.983Z,18.60
2023-06-22T02:59:23.803Z,17.20
2023-06-22T03:14:23.654Z,18.40
2023-06-22T03:29:23.480Z,16.80
2023-06-22T03:44:23.413Z,18.10
2023-06-22T03:59:23.196Z,17.50
2023-06-22T04:14:23.011Z,12.30
2023-06-22T04:29:22.822Z,18.50
2023-06-22T04:44:22.678Z,19.20
2023-06-22T04:59:22.500Z,16.70
2023-06-22T05:14:22.368Z,13.50
2023-06-22T05:29:22.176Z,13.00
2023-06-22T05:44:22.039Z,9.70
2023-06-22T05:59:21.849Z,8.70
2023-06-22T06:14:21.698Z,9.80
2023-06-22T06:29:21.524Z,7.70
2023-06-22T06:44:21.371Z,7.60
2023-06-22T06:59:21.216Z,6.70
2023-06-22T07:14:21.050Z,5.70
2023-06-22T07:29:20.871Z,4.90
2023-06-22T07:44:20.713Z,6.20
2023-06-22T07:59:20.545Z,5.50
2023-06-22T08:14:20.403Z,6.40
2023-06-22T08:29:20.217Z,5.30
2023-06-22T08:44:20.050Z,4.90
2023-06-22T08:59:19.897Z,6.40
2023-06-22T09:14:19.745Z,5.30
2023-06-22T09:29:19.575Z,5.40
2023-06-22T09:44:19.410Z,4.20
2023-06-22T09:59:19.385Z,4.80
2023-06-22T10:14:19.099Z,5.00
2023-06-22T10:29:18.953Z,4.90
2023-06-22T10:44:18.781Z,5.70
2023-06-22T10:59:18.663Z,5.00
2023-06-22T11:14:18.449Z,3.80
2023-06-22T11:29:31.904Z,4.40
2023-06-22T11:44:19.436Z,4.80
2023-06-22T11:59:18.009Z,4.90
2023-06-22T12:14:17.817Z,4.80
2023-06-22T12:29:17.670Z,4.40
2023-06-22T12:44:17.617Z,6.00
2023-06-22T12:59:17.373Z,4.80
2023-06-22T13:14:17.336Z,4.30
2023-06-22T13:29:17.131Z,7.60
2023-06-22T13:44:16.851Z,4.70
2023-06-22T13:59:16.705Z,5.00
2023-06-22T14:14:16.552Z,5.00
2023-06-22T14:29:16.467Z,5.80
2023-06-22T14:44:17.137Z,5.20
2023-06-22T14:59:16.104Z,4.70
2023-06-22T15:14:15.904Z,5.70
2023-06-22T15:29:15.846Z,5.50
2023-06-22T15:44:15.584Z,6.50
2023-06-22T15:59:15.434Z,5.70
2023-06-22T16:14:15.294Z,7.20
2023-06-22T16:29:15.136Z,5.20
2023-06-22T16:44:14.941Z,5.40
2023-06-22T16:59:14.801Z,5.80
2023-06-22T17:14:15.676Z,6.60
2023-06-22T17:29:14.598Z,7.40
2023-06-22T17:44:14.307Z,5.70
2023-06-22T17:59:14.130Z,5.70
2023-06-22T18:14:14.102Z,5.50
2023-06-22T18:29:13.986Z,6.70
2023-06-22T18:44:13.652Z,5.80
2023-06-22T18:59:13.602Z,5.80
2023-06-22T19:14:13.335Z,6.70
2023-06-22T19:29:13.720Z,6.00
2023-06-22T19:44:13.099Z,5.90
2023-06-22T19:59:12.901Z,7.30
2023-06-22T20:14:12.684Z,6.40
2023-06-22T20:29:12.533Z,7.10
2023-06-22T20:44:12.401Z,6.20
2023-06-22T20:59:13.330Z,10.50
2023-06-22T21:14:19.332Z,14.50
2023-06-22T21:29:12.646Z,10.30
2023-06-22T21:44:11.787Z,12.20
2023-06-22T21:59:11.554Z,14.10
2023-06-22T22:14:11.390Z,18.00
2023-06-22T22:29:11.228Z,17.90
2023-06-22T22:44:11.057Z,17.50
2023-06-22T22:59:10.914Z,18.30
2023-06-22T23:14:10.738Z,15.70
2023-06-22T23:29:10.566Z,15.10
2023-06-22T23:44:10.403Z,12.30
2023-06-22T23:59:10.251Z,12.10
